sensor_id;sensor_type;location;lat;lon;timestamp;P1;durP1;ratioP1;P2;durP2;ratioP2
46643;SDS011;32371;51.032;5.816;2022-10-23T00:00:08;3.28;;;1.75;;
46643;SDS011;32371;51.032;5.816;2022-10-23T00:02:34;4.00;;;2.05;;
46643;SDS011;32371;51.032;5.816;2022-10-23T00:05:00;6.43;;;1.95;;
46643;SDS011;32371;51.032;5.816;2022-10-23T00:07:25;7.63;;;2.03;;
46643;SDS011;32371;51.032;5.816;2022-10-23T00:09:50;6.38;;;2.38;;
46643;SDS011;32371;51.032;5.816;2022-10-23T00:12:16;6.40;;;2.58;;
46643;SDS011;32371;51.032;5.816;2022-10-23T00:14:41;4.43;;;2.13;;
46643;SDS011;32371;51.032;5.816;2022-10-23T00:17:06;4.15;;;2.03;;
46643;SDS011;32371;51.032;5.816;2022-10-23T00:19:34;5.50;;;2.10;;
46643;SDS011;32371;51.032;5.816;2022-10-23T00:21:59;5.13;;;1.73;;
46643;SDS011;32371;51.032;5.816;2022-10-23T00:24:25;3.80;;;1.65;;
46643;SDS011;32371;51.032;5.816;2022-10-23T00:26:50;5.88;;;2.45;;
46643;SDS011;32371;51.032;5.816;2022-10-23T00:29:15;7.22;;;2.22;;
46643;SDS011;32371;51.032;5.816;2022-10-23T00:31:41;4.40;;;2.20;;
46643;SDS011;32371;51.032;5.816;2022-10-23T00:34:06;7.03;;;2.15;;
46643;SDS011;32371;51.032;5.816;2022-10-23T00:36:32;5.97;;;2.40;;
46643;SDS011;32371;51.032;5.816;2022-10-23T00:38:58;10.68;;;2.63;;
46643;SDS011;32371;51.032;5.816;2022-10-23T00:41:25;8.88;;;2.50;;
46643;SDS011;32371;51.032;5.816;2022-10-23T00:46:23;6.72;;;3.97;;
46643;SDS011;32371;51.032;5.816;2022-10-23T00:48:49;7.50;;;2.85;;
46643;SDS011;32371;51.032;5.816;2022-10-23T00:51:14;3.33;;;2.10;;
46643;SDS011;32371;51.032;5.816;2022-10-23T00:53:40;5.75;;;1.80;;
46643;SDS011;32371;51.032;5.816;2022-10-23T00:56:07;5.97;;;2.15;;
46643;SDS011;32371;51.032;5.816;2022-10-23T00:58:32;4.80;;;2.28;;
46643;SDS011;32371;51.032;5.816;2022-10-23T01:00:58;7.13;;;2.45;;
46643;SDS011;32371;51.032;5.816;2022-10-23T01:03:24;5.97;;;2.15;;
46643;SDS011;32371;51.032;5.816;2022-10-23T01:08:36;4.38;;;1.85;;
46643;SDS011;32371;51.032;5.816;2022-10-23T01:11:12;2.63;;;1.50;;
46643;SDS011;32371;51.032;5.816;2022-10-23T01:19:04;3.10;;;1.45;;
46643;SDS011;32371;51.032;5.816;2022-10-23T01:21:47;2.47;;;2.28;;
46643;SDS011;32371;51.032;5.816;2022-10-23T01:26:49;6.35;;;2.30;;
46643;SDS011;32371;51.032;5.816;2022-10-23T01:29:32;8.80;;;2.72;;
46643;SDS011;32371;51.032;5.816;2022-10-23T01:37:40;9.52;;;1.73;;
46643;SDS011;32371;51.032;5.816;2022-10-23T01:40:12;2.72;;;1.67;;
46643;SDS011;32371;51.032;5.816;2022-10-23T01:42:43;3.05;;;1.20;;
46643;SDS011;32371;51.032;5.816;2022-10-23T01:45:14;1.95;;;1.33;;
46643;SDS011;32371;51.032;5.816;2022-10-23T01:48:00;4.97;;;1.33;;
46643;SDS011;32371;51.032;5.816;2022-10-23T01:50:26;5.03;;;1.63;;
46643;SDS011;32371;51.032;5.816;2022-10-23T01:52:53;4.35;;;1.77;;
46643;SDS011;32371;51.032;5.816;2022-10-23T01:55:18;7.47;;;1.90;;
46643;SDS011;32371;51.032;5.816;2022-10-23T01:57:44;4.18;;;1.88;;
46643;SDS011;32371;51.032;5.816;2022-10-23T02:00:12;7.05;;;2.08;;
46643;SDS011;32371;51.032;5.816;2022-10-23T02:02:39;8.80;;;2.10;;
46643;SDS011;32371;51.032;5.816;2022-10-23T02:05:06;2.72;;;2.40;;
46643;SDS011;32371;51.032;5.816;2022-10-23T02:07:33;4.55;;;1.88;;
46643;SDS011;32371;51.032;5.816;2022-10-23T02:09:58;4.68;;;2.10;;
46643;SDS011;32371;51.032;5.816;2022-10-23T02:12:26;7.55;;;2.22;;
46643;SDS011;32371;51.032;5.816;2022-10-23T02:14:57;10.30;;;2.42;;
46643;SDS011;32371;51.032;5.816;2022-10-23T02:20:14;5.60;;;2.30;;
46643;SDS011;32371;51.032;5.816;2022-10-23T02:22:42;10.02;;;1.77;;
46643;SDS011;32371;51.032;5.816;2022-10-23T02:25:14;5.47;;;2.50;;
46643;SDS011;32371;51.032;5.816;2022-10-23T02:27:49;6.05;;;2.20;;
46643;SDS011;32371;51.032;5.816;2022-10-23T02:30:18;3.78;;;1.75;;
46643;SDS011;32371;51.032;5.816;2022-10-23T02:32:45;13.23;;;2.38;;
46643;SDS011;32371;51.032;5.816;2022-10-23T02:35:12;6.63;;;2.20;;
46643;SDS011;32371;51.032;5.816;2022-10-23T02:37:38;7.97;;;2.53;;
46643;SDS011;32371;51.032;5.816;2022-10-23T02:40:03;7.95;;;2.20;;
46643;SDS011;32371;51.032;5.816;2022-10-23T02:42:32;3.80;;;1.80;;
46643;SDS011;32371;51.032;5.816;2022-10-23T02:50:32;5.32;;;2.95;;
46643;SDS011;32371;51.032;5.816;2022-10-23T02:55:38;5.15;;;1.63;;
46643;SDS011;32371;51.032;5.816;2022-10-23T03:01:19;10.20;;;1.77;;
46643;SDS011;32371;51.032;5.816;2022-10-23T03:03:48;7.68;;;2.13;;
46643;SDS011;32371;51.032;5.816;2022-10-23T03:06:16;5.00;;;2.05;;
46643;SDS011;32371;51.032;5.816;2022-10-23T03:08:57;4.55;;;1.60;;
46643;SDS011;32371;51.032;5.816;2022-10-23T03:11:24;4.57;;;2.00;;
46643;SDS011;32371;51.032;5.816;2022-10-23T03:13:50;9.45;;;1.50;;
46643;SDS011;32371;51.032;5.816;2022-10-23T03:16:15;2.90;;;1.85;;
46643;SDS011;32371;51.032;5.816;2022-10-23T03:18:40;4.20;;;2.30;;
46643;SDS011;32371;51.032;5.816;2022-10-23T03:21:06;4.75;;;2.33;;
46643;SDS011;32371;51.032;5.816;2022-10-23T03:23:31;6.53;;;2.00;;
46643;SDS011;32371;51.032;5.816;2022-10-23T03:25:57;6.88;;;2.15;;
46643;SDS011;32371;51.032;5.816;2022-10-23T03:28:22;6.93;;;1.88;;
46643;SDS011;32371;51.032;5.816;2022-10-23T03:30:48;6.03;;;2.00;;
46643;SDS011;32371;51.032;5.816;2022-10-23T03:33:13;3.72;;;1.88;;
46643;SDS011;32371;51.032;5.816;2022-10-23T03:35:38;2.78;;;1.45;;
46643;SDS011;32371;51.032;5.816;2022-10-23T03:38:04;5.03;;;1.98;;
46643;SDS011;32371;51.032;5.816;2022-10-23T03:40:29;6.00;;;2.00;;
46643;SDS011;32371;51.032;5.816;2022-10-23T03:42:55;10.57;;;2.28;;
46643;SDS011;32371;51.032;5.816;2022-10-23T03:45:20;4.82;;;2.30;;
46643;SDS011;32371;51.032;5.816;2022-10-23T03:47:45;6.78;;;1.85;;
46643;SDS011;32371;51.032;5.816;2022-10-23T03:50:11;4.80;;;1.90;;
46643;SDS011;32371;51.032;5.816;2022-10-23T03:52:37;7.68;;;1.60;;
46643;SDS011;32371;51.032;5.816;2022-10-23T03:55:03;5.78;;;1.70;;
46643;SDS011;32371;51.032;5.816;2022-10-23T03:57:29;2.50;;;1.70;;
46643;SDS011;32371;51.032;5.816;2022-10-23T03:59:54;5.25;;;1.83;;
46643;SDS011;32371;51.032;5.816;2022-10-23T04:02:20;6.15;;;2.00;;
46643;SDS011;32371;51.032;5.816;2022-10-23T04:04:45;7.80;;;2.33;;
46643;SDS011;32371;51.032;5.816;2022-10-23T04:07:11;10.18;;;1.95;;
46643;SDS011;32371;51.032;5.816;2022-10-23T04:09:36;5.70;;;1.77;;
46643;SDS011;32371;51.032;5.816;2022-10-23T04:12:01;5.90;;;2.03;;
46643;SDS011;32371;51.032;5.816;2022-10-23T04:14:27;3.45;;;1.38;;
46643;SDS011;32371;51.032;5.816;2022-10-23T04:16:52;7.32;;;2.53;;
46643;SDS011;32371;51.032;5.816;2022-10-23T04:19:18;2.83;;;1.55;;
46643;SDS011;32371;51.032;5.816;2022-10-23T04:21:43;2.95;;;1.30;;
46643;SDS011;32371;51.032;5.816;2022-10-23T04:24:09;5.72;;;1.58;;
46643;SDS011;32371;51.032;5.816;2022-10-23T04:26:34;8.75;;;2.05;;
46643;SDS011;32371;51.032;5.816;2022-10-23T04:28:59;2.65;;;1.63;;
46643;SDS011;32371;51.032;5.816;2022-10-23T04:31:25;6.45;;;2.22;;
46643;SDS011;32371;51.032;5.816;2022-10-23T04:33:50;2.63;;;1.67;;
46643;SDS011;32371;51.032;5.816;2022-10-23T04:36:16;7.95;;;1.92;;
46643;SDS011;32371;51.032;5.816;2022-10-23T04:38:41;3.58;;;1.67;;
46643;SDS011;32371;51.032;5.816;2022-10-23T04:41:06;5.38;;;1.90;;
46643;SDS011;32371;51.032;5.816;2022-10-23T04:43:32;4.28;;;1.95;;
46643;SDS011;32371;51.032;5.816;2022-10-23T04:45:57;3.05;;;1.70;;
46643;SDS011;32371;51.032;5.816;2022-10-23T04:48:23;7.38;;;1.95;;
46643;SDS011;32371;51.032;5.816;2022-10-23T04:50:58;11.05;;;1.73;;
46643;SDS011;32371;51.032;5.816;2022-10-23T04:53:25;7.18;;;2.13;;
46643;SDS011;32371;51.032;5.816;2022-10-23T04:55:52;4.95;;;1.23;;
46643;SDS011;32371;51.032;5.816;2022-10-23T04:58:19;7.93;;;1.83;;
46643;SDS011;32371;51.032;5.816;2022-10-23T05:00:44;4.05;;;1.80;;
46643;SDS011;32371;51.032;5.816;2022-10-23T05:03:10;4.90;;;1.73;;
46643;SDS011;32371;51.032;5.816;2022-10-23T05:05:36;3.13;;;1.73;;
46643;SDS011;32371;51.032;5.816;2022-10-23T05:08:01;3.65;;;1.48;;
46643;SDS011;32371;51.032;5.816;2022-10-23T05:10:26;5.57;;;1.45;;
46643;SDS011;32371;51.032;5.816;2022-10-23T05:12:52;2.80;;;1.45;;
46643;SDS011;32371;51.032;5.816;2022-10-23T05:15:17;4.63;;;2.25;;
46643;SDS011;32371;51.032;5.816;2022-10-23T05:17:43;4.47;;;1.60;;
46643;SDS011;32371;51.032;5.816;2022-10-23T05:20:12;3.75;;;1.38;;
46643;SDS011;32371;51.032;5.816;2022-10-23T05:22:42;4.47;;;1.38;;
46643;SDS011;32371;51.032;5.816;2022-10-23T05:25:09;9.77;;;1.88;;
46643;SDS011;32371;51.032;5.816;2022-10-23T05:27:36;2.60;;;1.58;;
46643;SDS011;32371;51.032;5.816;2022-10-23T05:30:02;3.58;;;1.52;;
46643;SDS011;32371;51.032;5.816;2022-10-23T05:32:28;5.90;;;1.25;;
46643;SDS011;32371;51.032;5.816;2022-10-23T05:34:54;2.45;;;1.42;;
46643;SDS011;32371;51.032;5.816;2022-10-23T05:37:20;2.72;;;1.60;;
46643;SDS011;32371;51.032;5.816;2022-10-23T05:39:46;8.65;;;1.75;;
46643;SDS011;32371;51.032;5.816;2022-10-23T05:42:11;4.55;;;1.08;;
46643;SDS011;32371;51.032;5.816;2022-10-23T05:44:36;2.05;;;1.30;;
46643;SDS011;32371;51.032;5.816;2022-10-23T05:47:02;10.25;;;1.67;;
46643;SDS011;32371;51.032;5.816;2022-10-23T05:49:27;5.47;;;1.75;;
46643;SDS011;32371;51.032;5.816;2022-10-23T05:51:52;5.88;;;1.80;;
46643;SDS011;32371;51.032;5.816;2022-10-23T05:54:18;3.40;;;1.30;;
46643;SDS011;32371;51.032;5.816;2022-10-23T05:56:43;3.60;;;1.70;;
46643;SDS011;32371;51.032;5.816;2022-10-23T05:59:09;2.80;;;1.50;;
46643;SDS011;32371;51.032;5.816;2022-10-23T06:01:35;1.80;;;1.38;;
46643;SDS011;32371;51.032;5.816;2022-10-23T06:04:01;3.30;;;1.48;;
46643;SDS011;32371;51.032;5.816;2022-10-23T06:06:27;2.28;;;1.40;;
46643;SDS011;32371;51.032;5.816;2022-10-23T06:08:53;3.33;;;1.02;;
46643;SDS011;32371;51.032;5.816;2022-10-23T06:11:18;2.92;;;0.90;;
46643;SDS011;32371;51.032;5.816;2022-10-23T06:13:44;5.50;;;1.63;;
46643;SDS011;32371;51.032;5.816;2022-10-23T06:16:14;11.55;;;1.77;;
46643;SDS011;32371;51.032;5.816;2022-10-23T06:18:41;7.68;;;1.50;;
46643;SDS011;32371;51.032;5.816;2022-10-23T06:21:06;7.22;;;1.48;;
46643;SDS011;32371;51.032;5.816;2022-10-23T06:23:32;5.15;;;1.13;;
46643;SDS011;32371;51.032;5.816;2022-10-23T06:25:59;9.60;;;1.58;;
46643;SDS011;32371;51.032;5.816;2022-10-23T06:28:24;2.50;;;1.25;;
46643;SDS011;32371;51.032;5.816;2022-10-23T06:30:50;1.80;;;1.55;;
46643;SDS011;32371;51.032;5.816;2022-10-23T06:33:15;5.05;;;2.28;;
46643;SDS011;32371;51.032;5.816;2022-10-23T06:35:40;2.38;;;1.00;;
46643;SDS011;32371;51.032;5.816;2022-10-23T06:38:06;9.23;;;1.70;;
46643;SDS011;32371;51.032;5.816;2022-10-23T06:40:33;4.32;;;1.40;;
46643;SDS011;32371;51.032;5.816;2022-10-23T06:42:58;5.88;;;2.38;;
46643;SDS011;32371;51.032;5.816;2022-10-23T06:45:24;5.85;;;1.67;;
46643;SDS011;32371;51.032;5.816;2022-10-23T06:47:49;4.00;;;1.45;;
46643;SDS011;32371;51.032;5.816;2022-10-23T06:50:15;5.65;;;1.20;;
46643;SDS011;32371;51.032;5.816;2022-10-23T06:52:41;2.65;;;1.90;;
46643;SDS011;32371;51.032;5.816;2022-10-23T06:55:06;5.47;;;1.90;;
46643;SDS011;32371;51.032;5.816;2022-10-23T06:57:32;2.13;;;1.33;;
46643;SDS011;32371;51.032;5.816;2022-10-23T06:59:57;2.47;;;1.48;;
46643;SDS011;32371;51.032;5.816;2022-10-23T07:02:23;3.50;;;1.30;;
46643;SDS011;32371;51.032;5.816;2022-10-23T07:04:48;5.53;;;1.42;;
46643;SDS011;32371;51.032;5.816;2022-10-23T07:07:13;5.47;;;1.70;;
46643;SDS011;32371;51.032;5.816;2022-10-23T07:09:39;3.72;;;1.60;;
46643;SDS011;32371;51.032;5.816;2022-10-23T07:12:04;9.30;;;1.63;;
46643;SDS011;32371;51.032;5.816;2022-10-23T07:14:29;3.10;;;1.17;;
46643;SDS011;32371;51.032;5.816;2022-10-23T07:16:56;3.22;;;1.23;;
46643;SDS011;32371;51.032;5.816;2022-10-23T07:19:22;1.50;;;1.13;;
46643;SDS011;32371;51.032;5.816;2022-10-23T07:21:47;4.30;;;1.63;;
46643;SDS011;32371;51.032;5.816;2022-10-23T07:24:12;1.98;;;1.20;;
46643;SDS011;32371;51.032;5.816;2022-10-23T07:26:38;6.72;;;1.65;;
46643;SDS011;32371;51.032;5.816;2022-10-23T07:29:05;4.68;;;1.52;;
46643;SDS011;32371;51.032;5.816;2022-10-23T07:31:31;6.28;;;2.08;;
46643;SDS011;32371;51.032;5.816;2022-10-23T07:33:56;2.47;;;1.48;;
46643;SDS011;32371;51.032;5.816;2022-10-23T07:36:22;5.97;;;1.38;;
46643;SDS011;32371;51.032;5.816;2022-10-23T07:38:47;1.52;;;1.40;;
46643;SDS011;32371;51.032;5.816;2022-10-23T07:41:12;4.60;;;1.25;;
46643;SDS011;32371;51.032;5.816;2022-10-23T07:43:38;2.60;;;1.20;;
46643;SDS011;32371;51.032;5.816;2022-10-23T07:46:03;4.95;;;1.30;;
46643;SDS011;32371;51.032;5.816;2022-10-23T07:48:29;1.83;;;1.33;;
46643;SDS011;32371;51.032;5.816;2022-10-23T07:50:58;2.35;;;1.40;;
46643;SDS011;32371;51.032;5.816;2022-10-23T07:53:31;9.68;;;1.75;;
46643;SDS011;32371;51.032;5.816;2022-10-23T07:55:58;4.53;;;1.58;;
46643;SDS011;32371;51.032;5.816;2022-10-23T07:58:26;5.45;;;1.40;;
46643;SDS011;32371;51.032;5.816;2022-10-23T08:00:53;6.18;;;1.38;;
46643;SDS011;32371;51.032;5.816;2022-10-23T08:03:22;4.63;;;1.00;;
46643;SDS011;32371;51.032;5.816;2022-10-23T08:05:48;4.13;;;1.23;;
46643;SDS011;32371;51.032;5.816;2022-10-23T08:08:13;4.13;;;1.02;;
46643;SDS011;32371;51.032;5.816;2022-10-23T08:10:38;3.45;;;1.30;;
46643;SDS011;32371;51.032;5.816;2022-10-23T08:13:05;3.05;;;1.42;;
46643;SDS011;32371;51.032;5.816;2022-10-23T08:15:31;3.55;;;1.80;;
46643;SDS011;32371;51.032;5.816;2022-10-23T08:17:56;5.03;;;1.70;;
46643;SDS011;32371;51.032;5.816;2022-10-23T08:20:22;4.72;;;1.40;;
46643;SDS011;32371;51.032;5.816;2022-10-23T08:22:47;2.90;;;1.63;;
46643;SDS011;32371;51.032;5.816;2022-10-23T08:25:12;6.40;;;1.70;;
46643;SDS011;32371;51.032;5.816;2022-10-23T08:27:38;3.17;;;1.10;;
46643;SDS011;32371;51.032;5.816;2022-10-23T08:30:03;3.35;;;1.80;;
46643;SDS011;32371;51.032;5.816;2022-10-23T08:32:29;1.58;;;1.05;;
46643;SDS011;32371;51.032;5.816;2022-10-23T08:34:54;1.92;;;0.98;;
46643;SDS011;32371;51.032;5.816;2022-10-23T08:37:20;2.20;;;0.85;;
46643;SDS011;32371;51.032;5.816;2022-10-23T08:39:45;4.90;;;1.80;;
46643;SDS011;32371;51.032;5.816;2022-10-23T08:42:18;10.77;;;1.60;;
46643;SDS011;32371;51.032;5.816;2022-10-23T08:44:49;1.92;;;1.02;;
46643;SDS011;32371;51.032;5.816;2022-10-23T08:47:30;6.38;;;1.08;;
46643;SDS011;32371;51.032;5.816;2022-10-23T08:50:05;1.98;;;0.90;;
46643;SDS011;32371;51.032;5.816;2022-10-23T08:55:16;1.38;;;0.80;;
46643;SDS011;32371;51.032;5.816;2022-10-23T09:00:42;3.90;;;1.13;;
46643;SDS011;32371;51.032;5.816;2022-10-23T09:03:08;4.93;;;1.58;;
46643;SDS011;32371;51.032;5.816;2022-10-23T09:14:03;6.85;;;1.48;;
46643;SDS011;32371;51.032;5.816;2022-10-23T09:19:35;1.92;;;1.20;;
46643;SDS011;32371;51.032;5.816;2022-10-23T09:22:00;3.65;;;1.15;;
46643;SDS011;32371;51.032;5.816;2022-10-23T09:24:26;2.70;;;1.42;;
46643;SDS011;32371;51.032;5.816;2022-10-23T09:26:56;4.68;;;0.90;;
46643;SDS011;32371;51.032;5.816;2022-10-23T09:29:34;1.15;;;0.70;;
46643;SDS011;32371;51.032;5.816;2022-10-23T09:32:04;3.53;;;1.00;;
46643;SDS011;32371;51.032;5.816;2022-10-23T09:34:31;4.93;;;1.35;;
46643;SDS011;32371;51.032;5.816;2022-10-23T09:36:59;6.57;;;1.52;;
46643;SDS011;32371;51.032;5.816;2022-10-23T09:39:27;6.93;;;0.95;;
46643;SDS011;32371;51.032;5.816;2022-10-23T09:41:54;6.10;;;0.90;;
46643;SDS011;32371;51.032;5.816;2022-10-23T09:44:25;3.95;;;1.45;;
46643;SDS011;32371;51.032;5.816;2022-10-23T09:46:53;5.45;;;1.23;;
46643;SDS011;32371;51.032;5.816;2022-10-23T09:49:21;5.78;;;1.13;;
46643;SDS011;32371;51.032;5.816;2022-10-23T09:54:38;3.33;;;1.23;;
46643;SDS011;32371;51.032;5.816;2022-10-23T09:59:48;1.27;;;0.80;;
46643;SDS011;32371;51.032;5.816;2022-10-23T10:02:19;2.30;;;1.05;;
46643;SDS011;32371;51.032;5.816;2022-10-23T10:04:48;7.60;;;0.98;;
46643;SDS011;32371;51.032;5.816;2022-10-23T10:07:18;2.60;;;1.40;;
46643;SDS011;32371;51.032;5.816;2022-10-23T10:09:46;2.97;;;1.02;;
46643;SDS011;32371;51.032;5.816;2022-10-23T10:22:49;1.92;;;1.10;;
46643;SDS011;32371;51.032;5.816;2022-10-23T10:25:35;2.40;;;1.00;;
46643;SDS011;32371;51.032;5.816;2022-10-23T10:28:20;0.95;;;0.75;;
46643;SDS011;32371;51.032;5.816;2022-10-23T10:31:14;4.70;;;1.00;;
46643;SDS011;32371;51.032;5.816;2022-10-23T10:39:03;4.78;;;1.00;;
46643;SDS011;32371;51.032;5.816;2022-10-23T10:49:15;0.75;;;0.73;;
46643;SDS011;32371;51.032;5.816;2022-10-23T10:54:28;3.80;;;1.27;;
46643;SDS011;32371;51.032;5.816;2022-10-23T10:57:01;1.75;;;1.20;;
46643;SDS011;32371;51.032;5.816;2022-10-23T10:59:30;3.25;;;1.15;;
46643;SDS011;32371;51.032;5.816;2022-10-23T11:04:43;9.05;;;1.35;;
46643;SDS011;32371;51.032;5.816;2022-10-23T11:09:39;5.75;;;1.75;;
46643;SDS011;32371;51.032;5.816;2022-10-23T11:12:06;1.92;;;0.93;;
46643;SDS011;32371;51.032;5.816;2022-10-23T11:14:32;5.03;;;1.30;;
46643;SDS011;32371;51.032;5.816;2022-10-23T11:17:01;3.22;;;0.88;;
46643;SDS011;32371;51.032;5.816;2022-10-23T11:19:33;3.08;;;1.10;;
46643;SDS011;32371;51.032;5.816;2022-10-23T11:25:06;5.32;;;1.10;;
46643;SDS011;32371;51.032;5.816;2022-10-23T11:30:39;2.05;;;1.50;;
46643;SDS011;32371;51.032;5.816;2022-10-23T11:39:14;3.88;;;1.05;;
46643;SDS011;32371;51.032;5.816;2022-10-23T11:41:46;4.47;;;1.05;;
46643;SDS011;32371;51.032;5.816;2022-10-23T11:44:27;2.70;;;1.33;;
46643;SDS011;32371;51.032;5.816;2022-10-23T11:52:57;5.40;;;1.13;;
46643;SDS011;32371;51.032;5.816;2022-10-23T11:55:26;5.55;;;1.15;;
46643;SDS011;32371;51.032;5.816;2022-10-23T12:01:04;8.68;;;1.13;;
46643;SDS011;32371;51.032;5.816;2022-10-23T12:03:48;1.75;;;0.88;;
46643;SDS011;32371;51.032;5.816;2022-10-23T12:06:19;5.22;;;0.98;;
46643;SDS011;32371;51.032;5.816;2022-10-23T12:08:51;3.47;;;1.00;;
46643;SDS011;32371;51.032;5.816;2022-10-23T12:12:02;1.65;;;0.80;;
46643;SDS011;32371;51.032;5.816;2022-10-23T12:14:28;1.42;;;0.80;;
46643;SDS011;32371;51.032;5.816;2022-10-23T12:16:58;2.05;;;0.88;;
46643;SDS011;32371;51.032;5.816;2022-10-23T12:19:25;4.88;;;0.80;;
46643;SDS011;32371;51.032;5.816;2022-10-23T12:21:59;1.52;;;1.00;;
46643;SDS011;32371;51.032;5.816;2022-10-23T12:29:37;2.38;;;0.93;;
46643;SDS011;32371;51.032;5.816;2022-10-23T12:40:50;1.50;;;1.27;;
46643;SDS011;32371;51.032;5.816;2022-10-23T12:43:35;4.03;;;1.60;;
46643;SDS011;32371;51.032;5.816;2022-10-23T12:46:03;1.42;;;0.82;;
46643;SDS011;32371;51.032;5.816;2022-10-23T12:48:32;3.70;;;1.25;;
46643;SDS011;32371;51.032;5.816;2022-10-23T12:50:58;10.63;;;1.45;;
46643;SDS011;32371;51.032;5.816;2022-10-23T12:53:23;1.30;;;0.85;;
46643;SDS011;32371;51.032;5.816;2022-10-23T12:56:09;2.28;;;0.65;;
46643;SDS011;32371;51.032;5.816;2022-10-23T12:58:37;2.17;;;0.80;;
46643;SDS011;32371;51.032;5.816;2022-10-23T13:01:29;2.67;;;0.93;;
46643;SDS011;32371;51.032;5.816;2022-10-23T13:04:01;5.18;;;0.75;;
46643;SDS011;32371;51.032;5.816;2022-10-23T13:06:31;2.67;;;0.93;;
46643;SDS011;32371;51.032;5.816;2022-10-23T13:08:57;2.08;;;1.15;;
46643;SDS011;32371;51.032;5.816;2022-10-23T13:11:22;1.95;;;1.05;;
46643;SDS011;32371;51.032;5.816;2022-10-23T13:13:48;3.83;;;0.90;;
46643;SDS011;32371;51.032;5.816;2022-10-23T13:16:21;2.00;;;0.80;;
46643;SDS011;32371;51.032;5.816;2022-10-23T13:18:47;4.05;;;1.25;;
46643;SDS011;32371;51.032;5.816;2022-10-23T13:21:19;3.35;;;1.02;;
46643;SDS011;32371;51.032;5.816;2022-10-23T13:23:46;3.90;;;1.13;;
46643;SDS011;32371;51.032;5.816;2022-10-23T13:29:19;5.30;;;1.23;;
46643;SDS011;32371;51.032;5.816;2022-10-23T13:31:46;3.95;;;1.25;;
46643;SDS011;32371;51.032;5.816;2022-10-23T13:36:51;3.08;;;0.75;;
46643;SDS011;32371;51.032;5.816;2022-10-23T13:39:23;1.08;;;0.98;;
46643;SDS011;32371;51.032;5.816;2022-10-23T13:41:50;3.03;;;0.75;;
46643;SDS011;32371;51.032;5.816;2022-10-23T13:44:17;1.73;;;0.93;;
46643;SDS011;32371;51.032;5.816;2022-10-23T13:46:44;4.03;;;0.98;;
46643;SDS011;32371;51.032;5.816;2022-10-23T13:49:09;4.47;;;1.15;;
46643;SDS011;32371;51.032;5.816;2022-10-23T13:51:36;9.38;;;1.17;;
46643;SDS011;32371;51.032;5.816;2022-10-23T13:54:05;1.88;;;0.93;;
46643;SDS011;32371;51.032;5.816;2022-10-23T13:56:36;2.67;;;0.90;;
46643;SDS011;32371;51.032;5.816;2022-10-23T13:59:02;2.28;;;0.80;;
46643;SDS011;32371;51.032;5.816;2022-10-23T14:01:28;3.97;;;1.02;;
46643;SDS011;32371;51.032;5.816;2022-10-23T14:03:55;4.35;;;1.30;;
46643;SDS011;32371;51.032;5.816;2022-10-23T14:06:21;2.08;;;1.02;;
46643;SDS011;32371;51.032;5.816;2022-10-23T14:08:47;2.15;;;1.17;;
46643;SDS011;32371;51.032;5.816;2022-10-23T14:11:13;2.28;;;0.80;;
46643;SDS011;32371;51.032;5.816;2022-10-23T14:13:39;1.05;;;0.85;;
46643;SDS011;32371;51.032;5.816;2022-10-23T14:16:05;5.20;;;1.23;;
46643;SDS011;32371;51.032;5.816;2022-10-23T14:18:32;3.22;;;1.00;;
46643;SDS011;32371;51.032;5.816;2022-10-23T14:20:58;4.03;;;1.13;;
46643;SDS011;32371;51.032;5.816;2022-10-23T14:23:27;3.22;;;1.10;;
46643;SDS011;32371;51.032;5.816;2022-10-23T14:25:52;4.38;;;0.90;;
46643;SDS011;32371;51.032;5.816;2022-10-23T14:28:18;2.92;;;1.20;;
46643;SDS011;32371;51.032;5.816;2022-10-23T14:30:43;3.55;;;1.15;;
46643;SDS011;32371;51.032;5.816;2022-10-23T14:33:09;0.75;;;0.70;;
46643;SDS011;32371;51.032;5.816;2022-10-23T14:35:38;2.20;;;0.82;;
46643;SDS011;32371;51.032;5.816;2022-10-23T14:38:04;2.65;;;0.88;;
46643;SDS011;32371;51.032;5.816;2022-10-23T14:40:30;5.65;;;1.83;;
46643;SDS011;32371;51.032;5.816;2022-10-23T14:42:55;4.05;;;1.13;;
46643;SDS011;32371;51.032;5.816;2022-10-23T14:45:20;2.75;;;1.13;;
46643;SDS011;32371;51.032;5.816;2022-10-23T14:47:46;4.35;;;1.00;;
46643;SDS011;32371;51.032;5.816;2022-10-23T14:50:12;3.13;;;1.60;;
46643;SDS011;32371;51.032;5.816;2022-10-23T14:52:38;4.53;;;1.10;;
46643;SDS011;32371;51.032;5.816;2022-10-23T14:55:03;2.33;;;1.30;;
46643;SDS011;32371;51.032;5.816;2022-10-23T14:57:29;2.97;;;1.15;;
46643;SDS011;32371;51.032;5.816;2022-10-23T14:59:54;1.85;;;1.08;;
46643;SDS011;32371;51.032;5.816;2022-10-23T15:02:19;3.40;;;1.10;;
46643;SDS011;32371;51.032;5.816;2022-10-23T15:04:45;1.83;;;1.00;;
46643;SDS011;32371;51.032;5.816;2022-10-23T15:07:10;1.60;;;1.20;;
46643;SDS011;32371;51.032;5.816;2022-10-23T15:09:35;3.13;;;0.98;;
46643;SDS011;32371;51.032;5.816;2022-10-23T15:12:02;2.03;;;0.80;;
46643;SDS011;32371;51.032;5.816;2022-10-23T15:14:28;3.78;;;1.50;;
46643;SDS011;32371;51.032;5.816;2022-10-23T15:16:53;3.75;;;0.93;;
46643;SDS011;32371;51.032;5.816;2022-10-23T15:19:19;2.88;;;0.93;;
46643;SDS011;32371;51.032;5.816;2022-10-23T15:21:45;2.15;;;1.25;;
46643;SDS011;32371;51.032;5.816;2022-10-23T15:24:11;3.00;;;1.52;;
46643;SDS011;32371;51.032;5.816;2022-10-23T15:26:36;5.03;;;2.30;;
46643;SDS011;32371;51.032;5.816;2022-10-23T15:29:02;3.95;;;1.27;;
46643;SDS011;32371;51.032;5.816;2022-10-23T15:33:57;3.65;;;1.15;;
46643;SDS011;32371;51.032;5.816;2022-10-23T15:36:23;4.57;;;1.13;;
46643;SDS011;32371;51.032;5.816;2022-10-23T15:38:49;2.75;;;1.00;;
46643;SDS011;32371;51.032;5.816;2022-10-23T15:41:27;2.70;;;1.40;;
46643;SDS011;32371;51.032;5.816;2022-10-23T15:43:54;4.22;;;1.23;;
46643;SDS011;32371;51.032;5.816;2022-10-23T15:46:19;4.28;;;1.73;;
46643;SDS011;32371;51.032;5.816;2022-10-23T15:48:45;4.85;;;1.00;;
46643;SDS011;32371;51.032;5.816;2022-10-23T15:51:10;6.38;;;1.10;;
46643;SDS011;32371;51.032;5.816;2022-10-23T15:53:35;9.60;;;1.48;;
46643;SDS011;32371;51.032;5.816;2022-10-23T15:56:01;4.00;;;1.20;;
46643;SDS011;32371;51.032;5.816;2022-10-23T15:58:26;3.33;;;1.27;;
46643;SDS011;32371;51.032;5.816;2022-10-23T16:00:52;3.40;;;1.50;;
46643;SDS011;32371;51.032;5.816;2022-10-23T16:03:17;4.55;;;1.15;;
46643;SDS011;32371;51.032;5.816;2022-10-23T16:05:43;5.88;;;1.33;;
46643;SDS011;32371;51.032;5.816;2022-10-23T16:08:08;6.57;;;1.55;;
46643;SDS011;32371;51.032;5.816;2022-10-23T16:10:37;3.22;;;1.10;;
46643;SDS011;32371;51.032;5.816;2022-10-23T16:13:03;4.32;;;1.20;;
46643;SDS011;32371;51.032;5.816;2022-10-23T16:15:28;3.67;;;1.30;;
46643;SDS011;32371;51.032;5.816;2022-10-23T16:17:54;2.85;;;1.63;;
46643;SDS011;32371;51.032;5.816;2022-10-23T16:20:19;3.15;;;1.80;;
46643;SDS011;32371;51.032;5.816;2022-10-23T16:22:45;11.07;;;2.13;;
46643;SDS011;32371;51.032;5.816;2022-10-23T16:25:11;4.93;;;1.10;;
46643;SDS011;32371;51.032;5.816;2022-10-23T16:27:36;3.55;;;1.60;;
46643;SDS011;32371;51.032;5.816;2022-10-23T16:30:02;1.40;;;1.25;;
46643;SDS011;32371;51.032;5.816;2022-10-23T16:32:30;3.95;;;1.60;;
46643;SDS011;32371;51.032;5.816;2022-10-23T16:34:55;3.78;;;1.35;;
46643;SDS011;32371;51.032;5.816;2022-10-23T16:37:20;2.10;;;1.27;;
46643;SDS011;32371;51.032;5.816;2022-10-23T16:39:46;5.15;;;1.63;;
46643;SDS011;32371;51.032;5.816;2022-10-23T16:42:11;2.90;;;1.40;;
46643;SDS011;32371;51.032;5.816;2022-10-23T16:44:37;3.08;;;1.73;;
46643;SDS011;32371;51.032;5.816;2022-10-23T16:47:02;9.30;;;1.95;;
46643;SDS011;32371;51.032;5.816;2022-10-23T16:49:27;4.40;;;1.45;;
46643;SDS011;32371;51.032;5.816;2022-10-23T16:51:55;2.38;;;1.95;;
46643;SDS011;32371;51.032;5.816;2022-10-23T16:54:20;2.50;;;1.30;;
46643;SDS011;32371;51.032;5.816;2022-10-23T16:56:46;3.15;;;1.48;;
46643;SDS011;32371;51.032;5.816;2022-10-23T16:59:12;4.68;;;1.30;;